Time;durP1;ratioP1;P1;durP2;ratioP2;P2;SDS_P1;SDS_P2;PMS_P1;PMS_P2;Temp;Humidity;BMP_temperature;BMP_pressure;BME280_temperature;BME280_humidity;BME280_pressure;Samples;Min_cycle;Max_cycle;Signal;HPM_P1;HPM_P2
2022/04/03 00:02:11;;;;;;;;;;;1.00;92.10;;;;;;2101289;68;20202;-84
2022/04/03 00:04:58;;;;;;;;;;;1.10;92.60;;;;;;2102614;68;20054;-87
2022/04/03 00:07:43;;;;;;;;;;;1.00;92.50;;;;;;2103327;68;20198;-86
2022/04/03 00:10:24;;;;;;;;;;;1.10;92.30;;;;;;2108344;68;20076;-88
2022/04/03 00:13:07;;;;;;;;;;;1.40;92.20;;;;;;2116750;67;20120;-87
2022/04/03 00:15:50;;;;;;;;;;;1.10;92.20;;;;;;2117977;67;20550;-88
2022/04/03 00:18:35;;;;;;;;;;;1.60;92.40;;;;;;2125123;67;20135;-87
2022/04/03 00:21:18;;;;;;;;;;;1.10;91.80;;;;;;2136703;66;20222;-86
2022/04/03 00:24:04;;;;;;;;;;;1.10;93.50;;;;;;2143149;66;20139;-86
2022/04/03 00:26:48;;;;;;;;;;;1.20;94.00;;;;;;2150079;66;20222;-87
2022/04/03 00:29:31;;;;;;;;;;;1.20;93.30;;;;;;2135074;67;20126;-86
2022/04/03 00:32:16;;;;;;;;;;;1.10;92.70;;;;;;2135358;67;20202;-86
2022/04/03 00:35:00;;;;;;;;;;;1.10;93.00;;;;;;2133576;67;20264;-85
2022/04/03 00:37:44;;;;;;;;;;;1.00;92.10;;;;;;2140765;67;20077;-87
2022/04/03 00:40:30;;;;;;;;;;;0.90;92.60;;;;;;2139916;67;20441;-86
2022/04/03 00:43:14;;;;;;;;;;;0.80;93.20;;;;;;2132437;67;20060;-86
2022/04/03 00:45:55;;;;;;;;;;;0.70;93.10;;;;;;2124440;67;20234;-86
2022/04/03 00:48:40;;;;;;;;;;;0.60;93.30;;;;;;2140484;67;20147;-86
2022/04/03 00:51:22;;;;;;;;;;;0.60;93.50;;;;;;2133258;67;20149;-85
2022/04/03 00:54:04;;;;;;;;;;;0.50;93.40;;;;;;2136478;67;20236;-87
2022/04/03 00:56:45;;;;;;;;;;;0.40;93.60;;;;;;2141527;66;20051;-86
2022/04/03 00:59:33;;;;;;;;;;;0.30;93.40;;;;;;2137735;67;20646;-85
2022/04/03 01:02:20;;;;;;;;;;;0.20;93.20;;;;;;2120934;67;20077;-85
2022/04/03 01:05:02;;;;;;;;;;;0.20;93.20;;;;;;2104953;67;20207;-85
2022/04/03 01:07:44;;;;;;;;;;;0.10;93.70;;;;;;2106620;67;20114;-87
2022/04/03 01:10:34;;;;;;;;;;;0.20;94.00;;;;;;2107256;68;20173;-87
2022/04/03 01:13:19;;;;;;;;;;;0.20;94.00;;;;;;2104921;68;20203;-83
2022/04/03 01:16:00;;;;;;;;;;;0.20;94.00;;;;;;2111491;68;20097;-87
2022/04/03 01:18:41;;;;;;;;;;;0.30;95.80;;;;;;2112265;67;20101;-87
2022/04/03 01:21:23;;;;;;;;;;;0.20;96.00;;;;;;2099804;68;20205;-86
2022/04/03 01:24:15;;;;;;;;;;;0.20;95.80;;;;;;2107632;67;20127;-86
2022/04/03 01:27:03;;;;;;;;;;;0.10;95.40;;;;;;2101660;68;20114;-86
2022/04/03 01:29:48;;;;;;;;;;;0.00;94.90;;;;;;2086989;68;20250;-88
2022/04/03 01:32:29;;;;;;;;;;;0.00;94.90;;;;;;2090754;68;20208;-87
2022/04/03 01:35:12;;;;;;;;;;;0.00;95.30;;;;;;2099239;68;20663;-86
2022/04/03 01:37:57;;;;;;;;;;;0.00;95.90;;;;;;2105313;67;20156;-86
2022/04/03 01:40:41;;;;;;;;;;;0.30;96.40;;;;;;2100274;67;20081;-87
2022/04/03 01:43:24;;;;;;;;;;;0.00;97.60;;;;;;2110888;67;20274;-85
2022/04/03 01:46:09;;;;;;;;;;;0.00;98.30;;;;;;2104701;68;20617;-86
2022/04/03 01:48:54;;;;;;;;;;;0.10;98.60;;;;;;2091580;68;20159;-86
2022/04/03 01:51:41;;;;;;;;;;;0.20;98.10;;;;;;2093335;68;20626;-86
2022/04/03 01:54:24;;;;;;;;;;;0.20;98.00;;;;;;2083000;68;20569;-86
2022/04/03 01:57:11;;;;;;;;;;;0.30;98.80;;;;;;2078996;68;20156;-86
2022/04/03 01:59:53;;;;;;;;;;;0.00;98.10;;;;;;2080331;68;20201;-87
2022/04/03 02:02:36;;;;;;;;;;;0.50;99.60;;;;;;2100130;68;20101;-86
2022/04/03 02:05:21;;;;;;;;;;;0.50;99.60;;;;;;2098973;68;20191;-86
2022/04/03 02:08:03;;;;;;;;;;;0.90;98.90;;;;;;2097969;68;20634;-86
2022/04/03 02:10:44;;;;;;;;;;;0.50;98.50;;;;;;2102251;68;20074;-86
2022/04/03 02:13:25;;;;;;;;;;;0.60;99.40;;;;;;2100878;68;20112;-85
2022/04/03 02:16:06;;;;;;;;;;;0.70;99.00;;;;;;2099480;68;20114;-86
2022/04/03 02:18:51;;;;;;;;;;;1.00;99.90;;;;;;2087685;68;20525;-87
2022/04/03 02:21:32;;;;;;;;;;;0.80;99.90;;;;;;1877358;67;15814695;-87
2022/04/03 02:24:14;;;;;;;;;;;0.90;99.90;;;;;;2125785;67;20190;-87
2022/04/03 02:26:56;;;;;;;;;;;0.90;99.90;;;;;;2126797;67;20209;-87
2022/04/03 02:29:38;;;;;;;;;;;1.00;98.70;;;;;;2127110;67;20541;-87
2022/04/03 02:32:20;;;;;;;;;;;1.10;99.90;;;;;;2112853;67;20344;-87
2022/04/03 02:35:01;;;;;;;;;;;1.10;99.90;;;;;;2112492;67;20074;-86
2022/04/03 02:37:43;;;;;;;;;;;1.10;99.90;;;;;;2114478;67;20157;-87
2022/04/03 02:40:25;;;;;;;;;;;1.20;99.00;;;;;;2125595;67;20197;-86
2022/04/03 02:43:07;;;;;;;;;;;1.20;98.40;;;;;;2109160;67;20090;-86
2022/04/03 02:45:49;;;;;;;;;;;1.30;98.70;;;;;;2105847;68;20172;-87
2022/04/03 02:48:32;;;;;;;;;;;1.30;98.50;;;;;;2107693;68;20182;-87
2022/04/03 02:51:14;;;;;;;;;;;1.30;98.10;;;;;;2112969;67;20172;-87
2022/04/03 02:53:58;;;;;;;;;;;1.40;98.70;;;;;;2105518;68;20207;-86
2022/04/03 02:56:40;;;;;;;;;;;1.40;99.20;;;;;;2117065;67;20101;-87
2022/04/03 02:59:21;;;;;;;;;;;1.50;99.90;;;;;;2118799;67;20147;-87
2022/04/03 03:02:03;;;;;;;;;;;1.50;99.90;;;;;;2132365;67;20574;-87
2022/04/03 03:04:45;;;;;;;;;;;1.60;99.90;;;;;;2127055;67;20796;-87
2022/04/03 03:07:35;;;;;;;;;;;1.60;99.90;;;;;;2128330;67;20178;-87
2022/04/03 03:10:23;;;;;;;;;;;1.70;99.90;;;;;;2128437;67;20578;-88
2022/04/03 03:13:04;;;;;;;;;;;1.70;99.90;;;;;;2134682;67;20056;-88
2022/04/03 03:15:45;;;;;;;;;;;1.80;99.90;;;;;;2141477;66;20123;-88
2022/04/03 03:18:27;;;;;;;;;;;1.80;99.90;;;;;;2148036;66;20613;-87
2022/04/03 03:21:11;;;;;;;;;;;1.80;99.90;;;;;;2142119;66;20184;-87
2022/04/03 03:23:53;;;;;;;;;;;1.80;99.90;;;;;;2154967;66;20046;-88
2022/04/03 03:26:35;;;;;;;;;;;1.80;99.90;;;;;;2152533;66;20057;-86
2022/04/03 03:29:18;;;;;;;;;;;1.80;99.90;;;;;;2152742;66;20054;-88
2022/04/03 03:31:59;;;;;;;;;;;1.80;99.90;;;;;;2149943;66;20130;-86
2022/04/03 03:34:41;;;;;;;;;;;1.80;99.90;;;;;;2135340;67;20104;-87
2022/04/03 03:37:24;;;;;;;;;;;1.80;99.90;;;;;;2142638;67;20185;-88
2022/04/03 03:40:11;;;;;;;;;;;1.70;99.90;;;;;;2150264;66;20200;-88
2022/04/03 03:42:55;;;;;;;;;;;1.70;99.90;;;;;;2147871;67;20118;-88
2022/04/03 03:45:45;;;;;;;;;;;1.60;99.90;;;;;;2135116;67;20120;-88
2022/04/03 03:48:30;;;;;;;;;;;1.60;99.90;;;;;;2146901;66;20163;-86
2022/04/03 03:51:11;;;;;;;;;;;1.50;99.90;;;;;;2141400;67;20227;-87
2022/04/03 03:53:53;;;;;;;;;;;1.40;99.90;;;;;;2143728;67;20212;-87
2022/04/03 03:56:34;;;;;;;;;;;1.30;99.90;;;;;;2145037;67;20082;-86
2022/04/03 03:59:16;;;;;;;;;;;1.30;99.90;;;;;;2136302;67;20115;-87
2022/04/03 04:01:58;;;;;;;;;;;1.20;99.90;;;;;;2126265;67;20215;-86
2022/04/03 04:04:40;;;;;;;;;;;1.10;99.90;;;;;;2113878;67;20246;-87
2022/04/03 04:07:21;;;;;;;;;;;1.00;99.90;;;;;;2106219;68;20071;-87
2022/04/03 04:10:06;;;;;;;;;;;0.90;99.90;;;;;;2103659;68;20109;-87
2022/04/03 04:12:47;;;;;;;;;;;0.90;99.90;;;;;;2095764;68;20191;-87
2022/04/03 04:15:30;;;;;;;;;;;0.80;99.90;;;;;;2097144;68;20681;-87
2022/04/03 04:18:15;;;;;;;;;;;0.80;99.90;;;;;;2092960;68;20055;-87
2022/04/03 04:20:58;;;;;;;;;;;0.80;99.90;;;;;;2098416;68;20059;-85
2022/04/03 04:23:40;;;;;;;;;;;0.70;99.90;;;;;;2106155;67;20158;-88
2022/04/03 04:26:21;;;;;;;;;;;0.70;99.90;;;;;;2113324;67;20125;-87
2022/04/03 04:29:04;;;;;;;;;;;0.70;99.90;;;;;;2119841;67;20068;-87
2022/04/03 04:31:46;;;;;;;;;;;0.70;99.90;;;;;;2121000;67;20113;-87
2022/04/03 04:34:29;;;;;;;;;;;0.80;99.90;;;;;;2132557;67;20048;-88
2022/04/03 04:37:13;;;;;;;;;;;0.70;99.90;;;;;;2150011;66;20101;-88
2022/04/03 04:39:55;;;;;;;;;;;0.60;99.90;;;;;;2152181;66;20681;-87
2022/04/03 04:42:36;;;;;;;;;;;0.60;99.90;;;;;;2142777;67;20081;-88
2022/04/03 04:45:18;;;;;;;;;;;0.50;99.90;;;;;;2134122;67;20076;-87
2022/04/03 04:47:59;;;;;;;;;;;0.40;99.90;;;;;;2119692;67;20605;-88
2022/04/03 04:50:41;;;;;;;;;;;0.40;99.90;;;;;;2116184;67;20170;-87
2022/04/03 04:53:23;;;;;;;;;;;0.40;99.90;;;;;;2120731;67;20069;-87
2022/04/03 04:56:12;;;;;;;;;;;0.30;99.90;;;;;;2127152;67;20511;-87
2022/04/03 04:58:55;;;;;;;;;;;0.30;99.90;;;;;;2123747;67;20072;-86
2022/04/03 05:01:39;;;;;;;;;;;0.20;99.90;;;;;;2120501;67;20072;-87
2022/04/03 05:04:20;;;;;;;;;;;0.20;99.90;;;;;;2113974;67;20237;-87
2022/04/03 05:07:02;;;;;;;;;;;0.10;99.90;;;;;;2115616;67;20198;-86
2022/04/03 05:09:44;;;;;;;;;;;0.10;99.90;;;;;;2128146;67;20111;-85
2022/04/03 05:12:30;;;;;;;;;;;0.10;99.90;;;;;;2116482;67;20062;-86
2022/04/03 05:15:14;;;;;;;;;;;0.10;99.90;;;;;;2116696;67;20205;-86
2022/04/03 05:17:56;;;;;;;;;;;0.10;99.90;;;;;;2121022;67;20138;-86
2022/04/03 05:20:43;;;;;;;;;;;0.10;99.90;;;;;;2128553;67;20048;-86
2022/04/03 05:23:27;;;;;;;;;;;0.10;99.90;;;;;;2115436;67;20482;-86
2022/04/03 05:26:10;;;;;;;;;;;0.10;99.90;;;;;;2113599;67;20147;-87
2022/04/03 05:28:51;;;;;;;;;;;0.10;99.90;;;;;;2126161;67;20234;-87
2022/04/03 05:31:33;;;;;;;;;;;0.30;99.90;;;;;;2113370;67;20231;-88
2022/04/03 05:34:17;;;;;;;;;;;0.40;99.90;;;;;;2112818;68;20114;-86
2022/04/03 05:36:59;;;;;;;;;;;0.50;99.90;;;;;;2107952;67;20107;-86
2022/04/03 05:39:42;;;;;;;;;;;0.60;99.90;;;;;;2121131;67;20149;-87
2022/04/03 05:42:24;;;;;;;;;;;0.60;99.90;;;;;;2138069;66;20067;-87
2022/04/03 05:45:05;;;;;;;;;;;0.60;99.90;;;;;;2138441;67;20623;-87
2022/04/03 05:47:50;;;;;;;;;;;0.50;99.90;;;;;;2139071;67;20214;-87
2022/04/03 05:50:34;;;;;;;;;;;0.50;99.90;;;;;;2139729;67;20063;-88
2022/04/03 05:53:12;;;;;;;;;;;0.50;99.90;;;;;;2127751;67;20057;-89
2022/04/03 05:55:43;;;;;;;;;;;0.70;99.90;;;;;;2138886;67;20132;-86
2022/04/03 05:58:16;;;;;;;;;;;0.50;99.90;;;;;;2134606;67;20068;-87
2022/04/03 06:00:48;;;;;;;;;;;0.50;99.90;;;;;;2121135;67;20132;-87
2022/04/03 06:03:24;;;;;;;;;;;0.60;99.90;;;;;;2122163;67;20156;-88
2022/04/03 06:05:55;;;;;;;;;;;0.80;99.90;;;;;;2129809;67;20068;-87
2022/04/03 06:08:32;;;;;;;;;;;1.00;99.90;;;;;;2134479;67;20064;-88
2022/04/03 06:11:26;;;;;;;;;;;1.20;99.90;;;;;;2137982;67;20232;-88
2022/04/03 06:14:12;;;;;;;;;;;1.50;99.90;;;;;;2155513;66;20101;-88
2022/04/03 06:16:54;;;;;;;;;;;1.60;99.90;;;;;;2174948;65;20140;-88
2022/04/03 06:19:41;;;;;;;;;;;1.70;99.90;;;;;;2196055;65;20140;-88
2022/04/03 06:22:18;;;;;;;;;;;1.70;99.90;;;;;;2217416;64;20060;-87
2022/04/03 06:25:12;;;;;;;;;;;1.70;99.90;;;;;;2209728;64;20609;-88
2022/04/03 06:27:51;;;;;;;;;;;1.70;99.90;;;;;;2213529;64;20137;-87
2022/04/03 06:30:42;;;;;;;;;;;1.70;99.90;;;;;;2211088;64;20068;-87
2022/04/03 06:33:21;;;;;;;;;;;1.90;99.90;;;;;;2204001;65;20141;-87
2022/04/03 06:35:52;;;;;;;;;;;1.60;99.90;;;;;;2203020;65;20071;-87
2022/04/03 06:38:28;;;;;;;;;;;1.60;99.90;;;;;;2203048;65;20066;-86
2022/04/03 06:41:07;;;;;;;;;;;1.60;99.90;;;;;;2202255;65;20179;-87
2022/04/03 06:44:00;;;;;;;;;;;1.60;99.90;;;;;;2192317;65;20115;-85
2022/04/03 06:46:32;;;;;;;;;;;1.60;99.90;;;;;;2188681;65;20681;-86
2022/04/03 06:49:11;;;;;;;;;;;1.70;99.90;;;;;;2201532;65;20720;-87
2022/04/03 06:51:47;;;;;;;;;;;1.70;99.90;;;;;;2200810;65;20116;-88
2022/04/03 06:54:17;;;;;;;;;;;1.80;99.90;;;;;;2193037;65;20229;-88
2022/04/03 06:56:58;;;;;;;;;;;1.90;99.90;;;;;;2185179;65;20656;-88
2022/04/03 06:59:40;;;;;;;;;;;1.90;99.90;;;;;;2184296;65;20260;-87
2022/04/03 07:02:22;;;;;;;;;;;2.00;99.90;;;;;;2192835;65;20113;-87
2022/04/03 07:05:04;;;;;;;;;;;2.20;99.90;;;;;;2177557;65;20106;-88
2022/04/03 07:07:47;;;;;;;;;;;2.20;99.90;;;;;;2157082;66;20054;-88
2022/04/03 07:10:31;;;;;;;;;;;2.40;99.90;;;;;;2161176;66;20126;-87
2022/04/03 07:13:13;;;;;;;;;;;2.50;99.90;;;;;;2154354;66;20544;-88
2022/04/03 07:15:56;;;;;;;;;;;2.70;99.90;;;;;;2140898;67;20072;-85
2022/04/03 07:18:43;;;;;;;;;;;2.80;99.90;;;;;;2143361;67;20141;-87
2022/04/03 07:21:25;;;;;;;;;;;3.40;99.90;;;;;;2134819;67;20298;-86
2022/04/03 07:24:06;;;;;;;;;;;3.20;99.90;;;;;;2119202;67;20123;-88
2022/04/03 07:26:49;;;;;;;;;;;3.40;99.90;;;;;;2113339;67;20693;-85
2022/04/03 07:29:33;;;;;;;;;;;3.60;99.90;;;;;;2116825;67;20211;-87
2022/04/03 07:32:17;;;;;;;;;;;3.90;99.90;;;;;;2122279;67;20175;-88
2022/04/03 07:34:59;;;;;;;;;;;4.00;99.90;;;;;;2112993;67;20099;-86
2022/04/03 07:37:40;;;;;;;;;;;4.00;99.90;;;;;;2118921;67;20096;-86
2022/04/03 07:40:21;;;;;;;;;;;4.10;99.90;;;;;;2108953;67;20651;-88
2022/04/03 07:43:04;;;;;;;;;;;4.00;99.90;;;;;;2112820;67;20102;-88
2022/04/03 07:45:46;;;;;;;;;;;4.00;99.90;;;;;;2113431;67;20078;-86
2022/04/03 07:48:29;;;;;;;;;;;4.00;99.90;;;;;;2112162;67;20247;-87
2022/04/03 07:51:14;;;;;;;;;;;4.10;99.90;;;;;;2118675;67;20065;-87
2022/04/03 07:53:59;;;;;;;;;;;4.10;99.90;;;;;;2126626;67;20082;-86
2022/04/03 07:56:43;;;;;;;;;;;4.20;99.90;;;;;;2140545;66;20124;-85
2022/04/03 07:59:24;;;;;;;;;;;4.20;99.90;;;;;;2126125;67;20167;-85
2022/04/03 08:02:06;;;;;;;;;;;5.30;99.90;;;;;;2119399;67;20247;-87
2022/04/03 08:04:49;;;;;;;;;;;4.60;99.90;;;;;;2112970;67;20141;-89
2022/04/03 08:07:45;;;;;;;;;;;4.50;99.90;;;;;;2134873;67;20656;-85
2022/04/03 08:10:27;;;;;;;;;;;4.60;99.90;;;;;;2110635;67;20199;-86
2022/04/03 08:13:09;;;;;;;;;;;4.70;99.90;;;;;;2110312;67;20082;-87
2022/04/03 08:15:50;;;;;;;;;;;4.80;99.90;;;;;;2113884;67;20689;-83
2022/04/03 08:18:32;;;;;;;;;;;4.90;99.90;;;;;;2108125;67;20135;-87
2022/04/03 08:21:13;;;;;;;;;;;5.00;99.90;;;;;;2105542;68;20050;-88
2022/04/03 08:23:55;;;;;;;;;;;4.70;99.90;;;;;;2117228;67;20058;-88
2022/04/03 08:26:36;;;;;;;;;;;5.10;99.90;;;;;;2108916;67;20465;-90
2022/04/03 08:29:24;;;;;;;;;;;5.30;99.90;;;;;;2102260;67;20169;-88
2022/04/03 08:32:07;;;;;;;;;;;5.40;99.90;;;;;;2104458;67;20079;-87
2022/04/03 08:34:49;;;;;;;;;;;5.50;99.90;;;;;;2102208;68;20093;-87
2022/04/03 08:37:31;;;;;;;;;;;5.60;99.90;;;;;;2107652;68;20137;-87
2022/04/03 08:40:15;;;;;;;;;;;5.40;99.90;;;;;;2097793;68;20642;-88
2022/04/03 08:42:57;;;;;;;;;;;5.60;99.90;;;;;;2098782;68;20067;-88
2022/04/03 08:45:39;;;;;;;;;;;5.70;99.90;;;;;;2104563;68;20121;-88
2022/04/03 08:48:21;;;;;;;;;;;5.90;99.90;;;;;;2082208;68;20607;-87
2022/04/03 08:51:06;;;;;;;;;;;6.20;99.90;;;;;;2085782;68;20119;-88
2022/04/03 08:53:50;;;;;;;;;;;6.50;99.90;;;;;;2093407;68;20640;-84
2022/04/03 08:56:31;;;;;;;;;;;6.70;99.90;;;;;;2122063;67;20721;-87
2022/04/03 08:59:12;;;;;;;;;;;6.90;99.80;;;;;;2125332;67;20191;-88
2022/04/03 09:01:54;;;;;;;;;;;7.10;99.90;;;;;;2128357;67;20520;-87
2022/04/03 09:04:38;;;;;;;;;;;7.20;96.90;;;;;;2119927;67;20079;-86
2022/04/03 09:07:21;;;;;;;;;;;7.30;97.40;;;;;;2115478;67;20203;-87
2022/04/03 09:10:08;;;;;;;;;;;7.40;98.20;;;;;;2113934;67;20298;-86
2022/04/03 09:12:51;;;;;;;;;;;7.60;97.50;;;;;;2102835;67;20789;-87
2022/04/03 09:15:37;;;;;;;;;;;7.70;96.10;;;;;;2106131;67;20174;-86
2022/04/03 09:18:21;;;;;;;;;;;7.70;96.40;;;;;;2129365;67;20202;-87
2022/04/03 09:21:13;;;;;;;;;;;7.50;93.40;;;;;;2129847;67;20551;-88
2022/04/03 09:24:19;;;;;;;;;;;7.40;94.70;;;;;;2135046;66;20331;-88
2022/04/03 09:27:04;;;;;;;;;;;7.50;95.40;;;;;;2130292;67;20604;-88
2022/04/03 09:29:48;;;;;;;;;;;7.70;93.00;;;;;;2145439;66;20172;-85
2022/04/03 09:32:34;;;;;;;;;;;7.80;94.40;;;;;;2136715;67;20134;-84
2022/04/03 09:35:19;;;;;;;;;;;8.00;90.60;;;;;;2122985;67;20137;-87
2022/04/03 09:38:06;;;;;;;;;;;8.10;92.20;;;;;;2123545;67;20077;-86
2022/04/03 09:40:49;;;;;;;;;;;8.40;91.60;;;;;;2114317;67;20188;-88
2022/04/03 09:43:40;;;;;;;;;;;8.50;91.40;;;;;;2103063;68;20552;-85
2022/04/03 09:46:26;;;;;;;;;;;8.30;89.30;;;;;;2107737;67;20124;-87
2022/04/03 09:49:23;;;;;;;;;;;8.10;89.70;;;;;;2116559;67;20061;-87
2022/04/03 09:52:07;;;;;;;;;;;7.90;90.50;;;;;;2110533;67;20109;-85
2022/04/03 09:54:49;;;;;;;;;;;7.90;90.00;;;;;;2095892;68;20126;-87
2022/04/03 09:57:32;;;;;;;;;;;7.90;91.70;;;;;;2098759;67;20065;-86
2022/04/03 10:00:47;;;;;;;;;;;8.20;91.30;;;;;;2108926;67;20113;-88
2022/04/03 10:03:32;;;;;;;;;;;8.50;92.30;;;;;;2113972;67;20116;-86
2022/04/03 10:06:15;;;;;;;;;;;8.90;91.70;;;;;;2118804;67;20166;-84
2022/04/03 10:08:59;;;;;;;;;;;9.20;88.00;;;;;;2122952;67;20205;-86
2022/04/03 10:11:42;;;;;;;;;;;9.20;88.00;;;;;;2118601;67;20666;-88
2022/04/03 10:14:26;;;;;;;;;;;9.10;88.50;;;;;;2121590;67;20198;-87
2022/04/03 10:17:10;;;;;;;;;;;9.00;90.00;;;;;;2114612;67;20235;-85
2022/04/03 10:19:53;;;;;;;;;;;8.90;89.20;;;;;;2106524;68;20077;-88
2022/04/03 10:22:39;;;;;;;;;;;8.60;87.00;;;;;;2106436;68;20008;-87
2022/04/03 10:25:41;;;;;;;;;;;8.50;89.50;;;;;;2113957;67;20203;-87
2022/04/03 10:28:23;;;;;;;;;;;8.50;90.80;;;;;;2117082;67;20075;-88
2022/04/03 10:31:08;;;;;;;;;;;8.50;91.20;;;;;;2103798;68;20206;-89
2022/04/03 10:33:55;;;;;;;;;;;9.10;92.00;;;;;;2107594;68;20272;-87
2022/04/03 10:36:46;;;;;;;;;;;8.70;89.00;;;;;;2096551;68;20235;-87
2022/04/03 10:39:28;;;;;;;;;;;9.00;88.40;;;;;;2119075;67;20158;-87
2022/04/03 10:42:16;;;;;;;;;;;9.50;90.20;;;;;;2127511;67;20278;-87
2022/04/03 10:45:12;;;;;;;;;;;10.10;88.80;;;;;;2131989;67;20194;-86
2022/04/03 10:48:12;;;;;;;;;;;10.40;80.80;;;;;;2128463;67;20129;-86
2022/04/03 10:51:10;;;;;;;;;;;10.00;77.80;;;;;;2134658;67;20196;-86
2022/04/03 10:54:01;;;;;;;;;;;10.10;77.80;;;;;;2119595;67;20057;-87
2022/04/03 10:56:45;;;;;;;;;;;9.70;83.40;;;;;;2120498;67;20448;-87
2022/04/03 10:59:27;;;;;;;;;;;9.30;88.40;;;;;;2120433;67;20052;-86
2022/04/03 11:02:14;;;;;;;;;;;9.00;91.30;;;;;;2132595;67;20074;-88
2022/04/03 11:04:55;;;;;;;;;;;8.70;91.30;;;;;;2120369;67;20108;-87
2022/04/03 11:07:40;;;;;;;;;;;8.60;91.70;;;;;;2106972;67;20616;-88
2022/04/03 11:10:40;;;;;;;;;;;8.60;92.30;;;;;;2115528;67;20243;-87
2022/04/03 11:13:22;;;;;;;;;;;8.80;93.20;;;;;;2122056;67;20111;-87
2022/04/03 11:16:10;;;;;;;;;;;9.00;93.10;;;;;;2104255;68;20715;-88
2022/04/03 11:18:51;;;;;;;;;;;9.10;92.00;;;;;;2110336;67;20215;-88
2022/04/03 11:21:52;;;;;;;;;;;9.30;90.60;;;;;;2114577;67;20191;-88
2022/04/03 11:24:36;;;;;;;;;;;9.40;91.40;;;;;;2123678;67;20202;-88
2022/04/03 11:27:21;;;;;;;;;;;9.70;90.00;;;;;;2132651;67;20120;-88
2022/04/03 11:30:03;;;;;;;;;;;10.00;91.10;;;;;;2119421;67;20191;-88
2022/04/03 11:32:45;;;;;;;;;;;10.10;80.40;;;;;;2123000;67;20095;-90
2022/04/03 11:35:33;;;;;;;;;;;10.20;80.20;;;;;;2116199;67;20074;-87
2022/04/03 11:38:17;;;;;;;;;;;10.40;81.70;;;;;;2105843;68;20144;-89
2022/04/03 11:41:03;;;;;;;;;;;11.30;87.20;;;;;;2105392;68;20193;-87
2022/04/03 11:43:58;;;;;;;;;;;12.30;75.40;;;;;;2105088;68;20203;-89
2022/04/03 11:46:40;;;;;;;;;;;12.90;76.50;;;;;;2089662;68;20196;-90
2022/04/03 11:49:25;;;;;;;;;;;12.80;72.80;;;;;;2107243;67;20126;-88
2022/04/03 11:52:10;;;;;;;;;;;12.30;70.90;;;;;;2081915;68;20175;-88
2022/04/03 11:54:58;;;;;;;;;;;12.00;75.00;;;;;;2092331;68;20344;-88
2022/04/03 11:57:42;;;;;;;;;;;11.40;69.40;;;;;;2093484;68;20221;-80
2022/04/03 12:00:24;;;;;;;;;;;10.70;70.10;;;;;;2089895;68;20140;-81
2022/04/03 12:03:08;;;;;;;;;;;10.00;70.40;;;;;;2085492;68;20506;-82
2022/04/03 12:05:51;;;;;;;;;;;9.50;73.40;;;;;;2103688;67;20126;-81
2022/04/03 12:08:38;;;;;;;;;;;9.30;77.20;;;;;;2096399;68;20310;-84
2022/04/03 12:11:19;;;;;;;;;;;10.20;79.20;;;;;;2091394;68;20053;-84
2022/04/03 12:14:03;;;;;;;;;;;11.50;76.40;;;;;;2077834;68;20236;-81
2022/04/03 12:16:47;;;;;;;;;;;12.30;72.10;;;;;;2075193;68;20077;-85
2022/04/03 12:19:30;;;;;;;;;;;12.50;71.30;;;;;;2083031;68;20267;-81
2022/04/03 12:22:15;;;;;;;;;;;12.20;66.00;;;;;;2099324;68;20121;-81
2022/04/03 12:24:56;;;;;;;;;;;11.70;67.60;;;;;;2099055;68;20223;-83
2022/04/03 12:27:39;;;;;;;;;;;11.70;70.40;;;;;;2111795;67;20231;-81
2022/04/03 12:30:20;;;;;;;;;;;11.70;70.20;;;;;;2112412;67;20070;-82
2022/04/03 12:33:02;;;;;;;;;;;11.40;70.60;;;;;;2107192;67;20104;-81
2022/04/03 12:35:43;;;;;;;;;;;11.00;71.50;;;;;;2102596;67;20192;-80
2022/04/03 12:38:29;;;;;;;;;;;11.50;70.50;;;;;;2113290;67;20077;-83
2022/04/03 12:41:13;;;;;;;;;;;11.20;69.80;;;;;;2110632;67;20280;-80
2022/04/03 12:43:59;;;;;;;;;;;10.80;71.10;;;;;;2119359;67;20511;-82
2022/04/03 12:46:41;;;;;;;;;;;11.50;73.20;;;;;;2119591;67;20104;-82
2022/04/03 12:49:23;;;;;;;;;;;12.90;70.60;;;;;;2124190;67;20568;-82
2022/04/03 12:52:08;;;;;;;;;;;14.60;66.40;;;;;;2116725;67;20209;-82
2022/04/03 12:54:49;;;;;;;;;;;15.30;64.40;;;;;;2105639;67;20319;-81
2022/04/03 13:00:30;;;;;;;;;;;13.70;64.20;;;;;;2109049;67;20137;-82
2022/04/03 13:03:27;;;;;;;;;;;13.00;64.70;;;;;;2099614;67;20074;-82
2022/04/03 13:06:14;;;;;;;;;;;12.50;64.30;;;;;;2104407;67;20074;-82
2022/04/03 13:08:58;;;;;;;;;;;13.60;61.80;;;;;;2100981;68;20106;-81
2022/04/03 13:11:47;;;;;;;;;;;15.00;60.50;;;;;;2082644;68;20233;-83
2022/04/03 13:14:35;;;;;;;;;;;14.80;58.00;;;;;;2079074;68;20173;-82
2022/04/03 13:17:18;;;;;;;;;;;14.30;58.60;;;;;;2088182;68;20075;-82
2022/04/03 13:19:59;;;;;;;;;;;14.00;60.00;;;;;;2082365;68;20310;-82
2022/04/03 13:22:41;;;;;;;;;;;13.30;56.30;;;;;;2081984;68;20083;-82
2022/04/03 13:25:23;;;;;;;;;;;13.60;57.00;;;;;;2086609;68;20191;-80
2022/04/03 13:28:08;;;;;;;;;;;14.30;54.50;;;;;;2087816;68;20225;-82
2022/04/03 13:30:52;;;;;;;;;;;14.00;55.90;;;;;;2087949;68;20246;-81
2022/04/03 13:33:34;;;;;;;;;;;13.20;55.10;;;;;;2086601;68;20051;-81
2022/04/03 13:36:16;;;;;;;;;;;12.50;57.80;;;;;;2117367;67;20165;-81
2022/04/03 13:39:02;;;;;;;;;;;13.70;59.00;;;;;;2111899;67;20049;-81
2022/04/03 13:41:44;;;;;;;;;;;14.40;55.30;;;;;;2112028;67;20075;-82
2022/04/03 13:44:26;;;;;;;;;;;14.30;52.60;;;;;;2107069;67;20676;-81
2022/04/03 13:47:14;;;;;;;;;;;13.70;54.00;;;;;;2105523;67;20113;-81
2022/04/03 13:49:57;;;;;;;;;;;13.00;54.30;;;;;;2111613;67;20150;-83
2022/04/03 13:52:42;;;;;;;;;;;12.60;54.10;;;;;;2118578;67;20549;-83
2022/04/03 13:55:28;;;;;;;;;;;12.70;55.20;;;;;;2125361;67;20205;-82
2022/04/03 13:58:12;;;;;;;;;;;12.70;57.00;;;;;;2125459;67;20052;-80
2022/04/03 14:00:54;;;;;;;;;;;13.30;53.70;;;;;;2125662;67;20065;-81
2022/04/03 14:03:36;;;;;;;;;;;13.40;56.70;;;;;;2111523;67;20071;-82
2022/04/03 14:06:17;;;;;;;;;;;14.80;53.10;;;;;;2118298;67;20190;-80
2022/04/03 14:08:58;;;;;;;;;;;15.80;53.60;;;;;;2116857;67;20214;-81
2022/04/03 14:11:41;;;;;;;;;;;16.40;50.50;;;;;;2120581;67;20241;-81
2022/04/03 14:14:22;;;;;;;;;;;16.60;49.50;;;;;;2113430;67;20062;-80
2022/04/03 14:17:04;;;;;;;;;;;17.50;48.80;;;;;;2127491;67;20090;-82
2022/04/03 14:19:49;;;;;;;;;;;17.80;48.70;;;;;;2132918;67;20056;-80
2022/04/03 14:22:31;;;;;;;;;;;16.70;49.80;;;;;;2127302;67;20654;-81
2022/04/03 14:25:13;;;;;;;;;;;15.70;51.10;;;;;;2140942;66;20051;-83
2022/04/03 14:27:59;;;;;;;;;;;14.80;53.40;;;;;;2129225;67;20082;-79
2022/04/03 14:30:41;;;;;;;;;;;13.90;55.00;;;;;;2121066;67;20083;-80
2022/04/03 14:33:25;;;;;;;;;;;13.20;57.00;;;;;;2124073;67;20179;-81
2022/04/03 14:36:10;;;;;;;;;;;13.00;58.00;;;;;;2127125;67;20091;-80
2022/04/03 14:38:55;;;;;;;;;;;12.80;58.80;;;;;;2135182;66;20091;-79
2022/04/03 14:41:36;;;;;;;;;;;12.80;58.40;;;;;;2145857;66;20196;-81
2022/04/03 14:44:18;;;;;;;;;;;12.60;60.20;;;;;;2142338;66;20106;-82
2022/04/03 14:47:05;;;;;;;;;;;12.70;63.10;;;;;;2128875;67;20655;-81
2022/04/03 14:49:46;;;;;;;;;;;12.90;61.80;;;;;;2117726;67;20074;-81
2022/04/03 14:52:28;;;;;;;;;;;12.60;63.00;;;;;;2142753;66;20130;-80
2022/04/03 14:54:59;;;;;;;;;;;12.20;63.50;;;;;;2147288;66;20074;-80
2022/04/03 14:57:29;;;;;;;;;;;11.80;64.40;;;;;;2147194;66;20094;-81
2022/04/03 15:00:05;;;;;;;;;;;11.90;65.30;;;;;;2134876;66;20056;-80
2022/04/03 15:02:38;;;;;;;;;;;10.90;64.50;;;;;;2129589;67;20274;-82
2022/04/03 15:05:17;;;;;;;;;;;10.60;64.80;;;;;;2144607;66;20562;-82
2022/04/03 15:07:53;;;;;;;;;;;10.30;65.50;;;;;;2158229;66;20707;-81
2022/04/03 15:10:29;;;;;;;;;;;10.20;64.90;;;;;;2152406;66;20121;-79
2022/04/03 15:13:08;;;;;;;;;;;10.00;65.50;;;;;;2148758;66;20177;-80
2022/04/03 15:16:02;;;;;;;;;;;9.90;65.90;;;;;;2154862;66;20214;-81
2022/04/03 15:18:55;;;;;;;;;;;9.70;66.60;;;;;;2169131;65;20061;-82
2022/04/03 15:21:33;;;;;;;;;;;9.70;67.40;;;;;;2175965;65;20088;-83
2022/04/03 15:24:11;;;;;;;;;;;9.80;66.80;;;;;;2194431;65;20041;-82
2022/04/03 15:26:48;;;;;;;;;;;9.90;66.90;;;;;;2192001;65;20131;-81
2022/04/03 15:29:23;;;;;;;;;;;10.10;66.90;;;;;;2197420;65;20059;-80
2022/04/03 15:32:00;;;;;;;;;;;10.30;65.30;;;;;;2196043;65;20046;-81
2022/04/03 15:34:41;;;;;;;;;;;10.50;65.00;;;;;;2202681;64;20066;-81
2022/04/03 15:37:22;;;;;;;;;;;10.80;64.20;;;;;;2210636;64;20064;-81
2022/04/03 15:39:53;;;;;;;;;;;11.30;63.90;;;;;;2209765;64;20045;-81
2022/04/03 15:42:29;;;;;;;;;;;11.40;62.90;;;;;;2211237;64;20263;-79
2022/04/03 15:45:10;;;;;;;;;;;11.30;63.30;;;;;;2208936;64;20063;-82
2022/04/03 15:47:46;;;;;;;;;;;11.40;64.50;;;;;;2208465;64;20049;-83
2022/04/03 15:50:22;;;;;;;;;;;11.70;62.90;;;;;;2211486;64;20044;-81
2022/04/03 15:52:58;;;;;;;;;;;11.50;62.30;;;;;;2212048;64;20229;-83
2022/04/03 15:55:40;;;;;;;;;;;11.90;63.00;;;;;;2199121;65;20191;-82
2022/04/03 15:58:23;;;;;;;;;;;13.10;61.90;;;;;;2191432;65;20050;-80
2022/04/03 16:01:05;;;;;;;;;;;13.90;57.10;;;;;;2183725;65;20051;-82
2022/04/03 16:03:46;;;;;;;;;;;14.30;56.90;;;;;;2170484;65;20068;-81